createdAt,value
2023-11-24T00:01:31.013Z,81.26
2023-11-24T00:09:57.136Z,81.31
2023-11-24T00:18:22.734Z,81.36
2023-11-24T00:26:47.133Z,81.15
2023-11-24T00:35:12.928Z,81.19
2023-11-24T00:43:38.441Z,81.24
2023-11-24T00:52:04.338Z,81.26
2023-11-24T01:00:27.884Z,81.26
2023-11-24T01:08:51.653Z,81.32
2023-11-24T01:17:18.447Z,81.24
2023-11-24T01:25:42.800Z,81.25
2023-11-24T01:34:10.985Z,81.12
2023-11-24T01:42:39.733Z,81.35
2023-11-24T01:51:03.488Z,81.13
2023-11-24T01:59:27.036Z,81.24
2023-11-24T02:07:52.955Z,81.28
2023-11-24T02:16:17.004Z,81.17
2023-11-24T02:24:41.035Z,81.13
2023-11-24T02:33:12.052Z,81.46
2023-11-24T02:41:36.218Z,81.23
2023-11-24T02:49:59.437Z,81.25
2023-11-24T02:58:26.541Z,81.27
2023-11-24T03:06:50.445Z,81.34
2023-11-24T03:15:18.680Z,81.23
2023-11-24T03:23:43.194Z,81.24
2023-11-24T03:32:08.275Z,81.19
2023-11-24T03:40:32.871Z,81.27
2023-11-24T03:49:01.233Z,81.28
2023-11-24T03:57:29.783Z,81.38
2023-11-24T04:05:55.025Z,81.29
2023-11-24T04:14:18.655Z,81.19
2023-11-24T04:22:43.106Z,81.22
2023-11-24T04:31:10.194Z,81.27
2023-11-24T04:39:35.570Z,81.34
2023-11-24T04:48:08.909Z,81.28
2023-11-24T04:56:34.714Z,81.27
2023-11-24T05:04:58.508Z,81.25
2023-11-24T05:13:23.601Z,80.92
2023-11-24T05:21:51.014Z,81.07
2023-11-24T05:30:14.976Z,81.08
2023-11-24T05:38:41.032Z,80.96
2023-11-24T05:47:06.777Z,80.89
2023-11-24T05:55:32.140Z,80.90
2023-11-24T06:03:56.759Z,80.78
2023-11-24T06:12:23.326Z,80.81
2023-11-24T06:20:48.979Z,80.97
2023-11-24T06:29:13.702Z,80.90
2023-11-24T06:37:39.627Z,80.99
2023-11-24T06:46:04.522Z,80.95
2023-11-24T06:54:31.126Z,80.95
2023-11-24T07:02:55.768Z,80.98
2023-11-24T07:11:22.188Z,80.99
2023-11-24T07:19:46.204Z,80.97
2023-11-24T07:28:12.867Z,81.04
2023-11-24T07:36:36.781Z,80.95
2023-11-24T07:45:26.833Z,80.98
2023-11-24T07:53:50.508Z,80.96
2023-11-24T08:02:17.007Z,80.93
2023-11-24T08:10:43.311Z,80.93
2023-11-24T08:19:09.511Z,80.75
2023-11-24T08:27:34.530Z,80.97
2023-11-24T08:35:58.580Z,80.96
2023-11-24T08:44:25.994Z,80.96
2023-11-24T08:52:50.944Z,81.08
2023-11-24T09:01:19.816Z,81.08
2023-11-24T09:09:44.190Z,80.94
2023-11-24T09:18:10.721Z,81.11
2023-11-24T09:26:38.057Z,80.78
2023-11-24T09:35:07.226Z,80.79
2023-11-24T09:43:38.688Z,81.07
2023-11-24T09:52:05.332Z,81.03
2023-11-24T10:00:35.029Z,81.11
2023-11-24T10:09:00.176Z,81.13
2023-11-24T10:17:27.311Z,81.14
2023-11-24T10:25:52.744Z,80.84
2023-11-24T10:34:17.490Z,80.96
2023-11-24T10:42:50.716Z,80.87
2023-11-24T10:51:24.685Z,80.85
2023-11-24T10:59:52.470Z,80.73
2023-11-24T11:09:17.909Z,80.74
2023-11-24T11:17:43.040Z,80.98
2023-11-24T11:26:45.314Z,80.83
2023-11-24T11:35:12.101Z,80.74
2023-11-24T11:43:53.327Z,80.70
2023-11-24T11:52:17.848Z,80.58
2023-11-24T12:00:41.865Z,80.69
2023-11-24T12:09:07.029Z,80.78
2023-11-24T12:17:32.340Z,80.75
2023-11-24T12:25:57.847Z,80.69
2023-11-24T12:34:45.167Z,80.67
2023-11-24T12:43:20.241Z,80.77
2023-11-24T12:51:49.355Z,80.83
2023-11-24T13:00:18.780Z,80.80
2023-11-24T13:08:45.248Z,80.88
2023-11-24T13:17:09.133Z,80.69
2023-11-24T13:25:39.994Z,80.68
2023-11-24T13:34:05.998Z,80.63
2023-11-24T13:42:31.704Z,80.40
2023-11-24T13:50:59.462Z,80.17
2023-11-24T13:59:26.986Z,80.03
2023-11-24T14:07:52.577Z,79.89
2023-11-24T14:16:17.717Z,80.00
2023-11-24T14:24:45.448Z,79.89
2023-11-24T14:33:13.694Z,79.83
2023-11-24T14:41:37.722Z,79.59
2023-11-24T14:50:06.038Z,79.74
2023-11-24T14:58:30.609Z,79.84
2023-11-24T15:06:59.227Z,79.75
2023-11-24T15:15:26.259Z,79.61
2023-11-24T15:23:58.944Z,79.53
2023-11-24T15:32:22.578Z,79.75
2023-11-24T15:40:52.492Z,79.52
2023-11-24T15:49:17.898Z,79.56
2023-11-24T15:57:42.183Z,79.52
2023-11-24T16:06:09.300Z,79.48
2023-11-24T16:14:34.947Z,79.50
2023-11-24T16:22:59.757Z,79.57
2023-11-24T16:31:24.261Z,79.48
2023-11-24T16:39:47.703Z,79.60
2023-11-24T16:48:11.796Z,79.59
2023-11-24T16:56:34.915Z,79.58
2023-11-24T17:05:01.069Z,79.44
2023-11-24T17:13:25.321Z,79.49
2023-11-24T17:21:49.422Z,79.48
2023-11-24T17:30:16.972Z,79.47
2023-11-24T17:38:44.306Z,79.65
2023-11-24T17:47:08.956Z,79.41
2023-11-24T17:55:35.474Z,79.51
2023-11-24T18:04:02.796Z,79.52
2023-11-24T18:12:27.803Z,79.17
2023-11-24T18:20:51.022Z,79.17
2023-11-24T18:29:27.564Z,79.22
2023-11-24T18:38:10.507Z,78.97
2023-11-24T18:46:33.983Z,78.95
2023-11-24T18:54:57.709Z,79.07
2023-11-24T19:03:21.424Z,79.00
2023-11-24T19:11:50.008Z,78.88
2023-11-24T19:20:13.832Z,78.67
2023-11-24T19:28:40.756Z,78.92
2023-11-24T19:37:06.430Z,79.12
2023-11-24T19:45:30.163Z,78.87
2023-11-24T19:53:54.452Z,78.88
2023-11-24T20:02:19.654Z,79.05
2023-11-24T20:10:44.454Z,79.06
2023-11-24T20:19:10.317Z,79.07
2023-11-24T20:27:34.513Z,79.09
2023-11-24T20:35:58.623Z,78.97
2023-11-24T20:44:23.077Z,79.09
2023-11-24T20:52:49.099Z,79.16
2023-11-24T21:01:15.795Z,79.22
2023-11-24T21:09:42.761Z,79.26
2023-11-24T21:18:09.482Z,78.90
2023-11-24T21:26:37.086Z,78.96
2023-11-24T21:35:00.652Z,78.86
2023-11-24T21:43:23.868Z,78.99
2023-11-24T21:51:47.505Z,79.13
2023-11-24T22:00:18.704Z,78.94
2023-11-24T22:08:42.733Z,78.96
2023-11-24T22:17:08.945Z,79.02
2023-11-24T22:25:35.869Z,79.09
2023-11-24T22:33:59.947Z,79.09
2023-11-24T22:42:23.494Z,79.24
2023-11-24T22:50:52.727Z,79.14
2023-11-24T22:59:16.339Z,79.15
2023-11-24T23:07:43.095Z,79.36
2023-11-24T23:16:08.653Z,79.40
2023-11-24T23:24:35.216Z,79.35
2023-11-24T23:33:10.395Z,79.31
2023-11-24T23:41:42.683Z,79.41
2023-11-24T23:50:10.886Z,79.26
2023-11-24T23:58:37.923Z,79.35
